createdAt,value
2022-08-30T00:02:21.785Z,100925.91
2022-08-30T00:07:27.793Z,100924.50
2022-08-30T00:12:32.835Z,100928.13
2022-08-30T00:17:35.314Z,100939.97
2022-08-30T00:22:38.457Z,100938.84
2022-08-30T00:27:43.722Z,100946.69
2022-08-30T00:32:46.715Z,100946.50
2022-08-30T00:37:50.853Z,100952.56
2022-08-30T00:42:59.359Z,100946.13
2022-08-30T00:48:02.645Z,100949.56
2022-08-30T00:53:08.168Z,100944.13
2022-08-30T00:58:19.908Z,100939.84
2022-08-30T01:03:22.545Z,100937.03
2022-08-30T01:08:25.072Z,100948.16
2022-08-30T01:13:29.274Z,100948.44
2022-08-30T01:18:32.890Z,100951.84
2022-08-30T01:23:40.404Z,100960.22
2022-08-30T01:28:43.519Z,100950.59
2022-08-30T01:33:46.010Z,100947.03
2022-08-30T01:38:52.446Z,100954.69
2022-08-30T01:43:58.266Z,100964.41
2022-08-30T01:49:01.458Z,100962.72
2022-08-30T01:54:05.726Z,100967.16
2022-08-30T01:59:08.346Z,100966.41
2022-08-30T02:04:13.518Z,100955.22
2022-08-30T02:09:17.393Z,100954.31
2022-08-30T02:14:21.200Z,100961.41
2022-08-30T02:19:23.806Z,100963.59
2022-08-30T02:24:27.683Z,100950.31
2022-08-30T02:29:30.216Z,100958.25
2022-08-30T02:34:32.916Z,100956.22
2022-08-30T02:39:36.756Z,100958.31
2022-08-30T02:44:39.244Z,100943.25
2022-08-30T02:49:41.920Z,100946.66
2022-08-30T02:54:46.305Z,100948.19
2022-08-30T02:59:51.009Z,100945.84
2022-08-30T03:04:54.029Z,100952.09
2022-08-30T03:09:58.378Z,100941.34
2022-08-30T03:15:00.974Z,100944.19
2022-08-30T03:20:04.828Z,100939.47
2022-08-30T03:25:09.711Z,100952.22
2022-08-30T03:30:13.702Z,100968.31
2022-08-30T03:35:17.517Z,100963.31
2022-08-30T03:40:23.602Z,100957.56
2022-08-30T03:45:26.343Z,100954.06
2022-08-30T03:50:29.118Z,100959.56
2022-08-30T03:55:32.971Z,100950.53
2022-08-30T04:00:35.499Z,100952.44
2022-08-30T04:05:38.107Z,100957.16
2022-08-30T04:10:41.930Z,100960.03
2022-08-30T04:15:44.576Z,100957.91
2022-08-30T04:20:47.602Z,100963.50
2022-08-30T04:25:51.447Z,100972.59
2022-08-30T04:30:53.999Z,100974.56
2022-08-30T04:35:56.457Z,100975.78
2022-08-30T04:41:00.823Z,100971.31
2022-08-30T04:46:06.970Z,100986.75
2022-08-30T04:51:11.864Z,100992.63
2022-08-30T04:56:18.093Z,100989.66
2022-08-30T05:01:23.719Z,100993.38
2022-08-30T05:06:28.528Z,101001.44
2022-08-30T05:11:32.615Z,101000.97
2022-08-30T05:16:35.281Z,101006.69
2022-08-30T05:21:40.574Z,101021.72
2022-08-30T05:26:45.404Z,101021.31
2022-08-30T05:31:47.981Z,101015.13
2022-08-30T05:36:50.781Z,101005.72
2022-08-30T05:41:57.172Z,101022.13
2022-08-30T05:47:00.137Z,101016.88
2022-08-30T05:52:02.694Z,100994.94
2022-08-30T05:57:07.444Z,101017.06
2022-08-30T06:02:10.051Z,101019.84
2022-08-30T06:07:14.939Z,101028.94
2022-08-30T06:12:20.931Z,101041.06
2022-08-30T06:17:23.498Z,101026.88
2022-08-30T06:22:26.054Z,101036.06
2022-08-30T06:27:31.240Z,101031.78
2022-08-30T06:32:34.011Z,101025.09
2022-08-30T06:37:36.818Z,101043.41
2022-08-30T06:42:40.811Z,101045.06
2022-08-30T06:47:44.972Z,101034.97
2022-08-30T06:52:47.720Z,101030.00
2022-08-30T06:57:52.123Z,101027.72
2022-08-30T07:02:54.797Z,101023.56
2022-08-30T07:07:57.649Z,101023.88
2022-08-30T07:13:01.463Z,101027.22
2022-08-30T07:18:21.894Z,101032.56
2022-08-30T07:23:24.938Z,101029.97
2022-08-30T07:28:28.893Z,101041.34
2022-08-30T07:33:31.680Z,101024.56
2022-08-30T07:38:35.092Z,101023.28
2022-08-30T07:43:39.755Z,101043.66
2022-08-30T07:48:44.279Z,101042.72
2022-08-30T07:53:47.472Z,101044.84
2022-08-30T07:58:52.015Z,101047.44
2022-08-30T08:03:54.560Z,101045.00
2022-08-30T08:09:02.134Z,101038.72
2022-08-30T08:14:06.101Z,101050.59
2022-08-30T08:19:09.378Z,101047.19
2022-08-30T08:24:12.460Z,101047.06
2022-08-30T08:29:16.396Z,101041.50
2022-08-30T08:34:23.298Z,101044.94
2022-08-30T08:39:26.047Z,101049.00
2022-08-30T08:44:50.770Z,101054.47
2022-08-30T08:50:00.774Z,101045.47
2022-08-30T08:55:10.261Z,101044.56
2022-08-30T09:00:16.260Z,101047.91
2022-08-30T09:05:22.937Z,101042.19
2022-08-30T09:10:47.034Z,101040.69
2022-08-30T09:15:55.202Z,101046.31
2022-08-30T09:21:07.720Z,101037.50
2022-08-30T09:26:10.865Z,101026.16
2022-08-30T09:31:21.453Z,101029.03
2022-08-30T09:36:28.209Z,101031.81
2022-08-30T09:41:40.609Z,101013.06
2022-08-30T09:46:50.801Z,101021.97
2022-08-30T09:52:00.274Z,101025.25
2022-08-30T09:57:13.246Z,101028.31
2022-08-30T10:02:42.621Z,101020.13
2022-08-30T10:07:55.645Z,101007.84
2022-08-30T10:13:06.255Z,101000.97
2022-08-30T10:18:18.191Z,100987.16
2022-08-30T10:23:26.777Z,101000.03
2022-08-30T10:28:35.971Z,100987.03
2022-08-30T10:33:49.126Z,100976.47
2022-08-30T10:38:56.190Z,100975.66
2022-08-30T10:44:10.182Z,100979.78
2022-08-30T10:49:42.971Z,100981.22
2022-08-30T10:55:11.537Z,100983.41
2022-08-30T11:00:23.310Z,100984.47
2022-08-30T11:05:45.878Z,100977.69
2022-08-30T11:10:56.864Z,100964.78
2022-08-30T11:16:03.907Z,100967.22
2022-08-30T11:21:25.763Z,100987.41
2022-08-30T11:27:02.461Z,100974.88
2022-08-30T11:32:21.946Z,100979.88
2022-08-30T11:37:39.649Z,100974.94
2022-08-30T11:42:45.741Z,100970.00
2022-08-30T11:47:51.004Z,100962.44
2022-08-30T11:53:01.719Z,100961.91
2022-08-30T11:58:16.993Z,100960.97
2022-08-30T12:03:33.650Z,100958.84
2022-08-30T12:08:58.034Z,100960.81
2022-08-30T12:14:17.242Z,100958.19
2022-08-30T12:19:22.181Z,100949.69
2022-08-30T12:24:29.239Z,100947.03
2022-08-30T12:29:33.005Z,100953.38
2022-08-30T12:34:50.033Z,100949.56
2022-08-30T12:40:06.123Z,100941.78
2022-08-30T12:45:14.629Z,100934.28
2022-08-30T12:50:22.434Z,100933.16
2022-08-30T12:55:29.397Z,100916.31
2022-08-30T13:00:35.210Z,100927.22
2022-08-30T13:05:48.575Z,100922.03
2022-08-30T13:11:07.971Z,100921.81
2022-08-30T13:16:21.764Z,100916.56
2022-08-30T13:21:30.149Z,100915.44
2022-08-30T13:26:36.359Z,100914.66
2022-08-30T13:31:38.991Z,100908.22
2022-08-30T13:36:47.947Z,100915.59
2022-08-30T13:41:54.976Z,100908.66
2022-08-30T13:47:35.692Z,100915.50
2022-08-30T13:52:40.209Z,100911.31
2022-08-30T13:57:59.381Z,100913.25
2022-08-30T14:03:03.423Z,100908.06
2022-08-30T14:08:44.187Z,100912.16
2022-08-30T14:13:32.890Z,100901.81
2022-08-30T14:18:35.582Z,100912.56
2022-08-30T14:23:40.282Z,100901.22
2022-08-30T14:28:46.082Z,100916.31
2022-08-30T14:33:54.188Z,100915.75
2022-08-30T14:38:56.841Z,100916.47
2022-08-30T14:44:01.377Z,100921.56
2022-08-30T14:49:05.781Z,100912.97
2022-08-30T14:54:09.307Z,100917.22
2022-08-30T14:59:14.148Z,100905.56
2022-08-30T15:04:17.277Z,100900.59
2022-08-30T15:09:23.487Z,100896.81
2022-08-30T15:14:28.685Z,100895.06
2022-08-30T15:19:31.841Z,100904.78
2022-08-30T15:24:34.667Z,100891.47
2022-08-30T15:29:38.580Z,100900.78
2022-08-30T15:34:41.282Z,100902.50
2022-08-30T15:39:43.797Z,100896.56
2022-08-30T15:44:50.968Z,100889.31
2022-08-30T15:49:57.051Z,100882.22
2022-08-30T15:55:00.065Z,100878.81
2022-08-30T16:00:06.485Z,100883.03
2022-08-30T16:05:09.718Z,100875.78
2022-08-30T16:10:12.187Z,100878.00
2022-08-30T16:15:16.672Z,100882.03
2022-08-30T16:20:19.632Z,100872.97
2022-08-30T16:25:22.225Z,100861.19
2022-08-30T16:30:27.554Z,100858.13
2022-08-30T16:35:30.013Z,100859.69
2022-08-30T16:40:32.551Z,100860.31
2022-08-30T16:45:38.062Z,100855.69
2022-08-30T16:50:47.986Z,100851.06
2022-08-30T16:56:15.707Z,100850.97
2022-08-30T17:01:28.279Z,100850.47
2022-08-30T17:07:13.756Z,100850.56
2022-08-30T17:12:51.859Z,100844.44
2022-08-30T17:17:56.785Z,100839.69
2022-08-30T17:23:02.036Z,100843.69
2022-08-30T17:28:06.262Z,100849.13
2022-08-30T17:33:11.132Z,100851.41
2022-08-30T17:38:14.160Z,100866.19
2022-08-30T17:43:16.762Z,100873.09
2022-08-30T17:48:20.593Z,100872.16
2022-08-30T17:53:23.137Z,100872.53
2022-08-30T17:58:25.745Z,100884.94
2022-08-30T18:03:31.185Z,100884.00
2022-08-30T18:08:36.056Z,100890.91
2022-08-30T18:13:38.794Z,100900.38
2022-08-30T18:18:42.861Z,100901.50
2022-08-30T18:23:45.766Z,100905.56
2022-08-30T18:28:48.785Z,100915.59
2022-08-30T18:33:52.837Z,100919.72
2022-08-30T18:38:55.645Z,100932.16
2022-08-30T18:44:17.052Z,100928.50
2022-08-30T18:49:22.024Z,100925.59
2022-08-30T18:54:24.998Z,100923.13
2022-08-30T18:59:35.571Z,100931.91
2022-08-30T19:04:42.779Z,100925.22
2022-08-30T19:09:46.739Z,100925.63
2022-08-30T19:14:49.793Z,100924.25
2022-08-30T19:19:54.760Z,100927.09
2022-08-30T19:24:57.282Z,100928.34
2022-08-30T19:30:00.320Z,100932.81
2022-08-30T19:35:05.373Z,100931.13
2022-08-30T19:40:11.841Z,100946.94
2022-08-30T19:45:18.103Z,100947.72
2022-08-30T19:50:22.920Z,100954.03
2022-08-30T19:55:29.982Z,100950.47
2022-08-30T20:00:34.225Z,100958.28
2022-08-30T20:05:40.297Z,100959.34
2022-08-30T20:10:44.143Z,100962.81
2022-08-30T20:15:46.801Z,100958.91
2022-08-30T20:20:50.681Z,100944.69
2022-08-30T20:25:55.538Z,100950.00
2022-08-30T20:30:58.634Z,100950.50
2022-08-30T20:36:03.328Z,100946.78
2022-08-30T20:41:10.144Z,100948.97
2022-08-30T20:46:15.481Z,100949.66
2022-08-30T20:51:22.146Z,100952.75
2022-08-30T20:56:27.732Z,100955.66
2022-08-30T21:01:30.571Z,100960.41
2022-08-30T21:06:37.383Z,100950.94
2022-08-30T21:11:43.076Z,100955.50
2022-08-30T21:16:47.407Z,100968.53
2022-08-30T21:21:51.326Z,100970.31
2022-08-30T21:26:55.556Z,100977.31
2022-08-30T21:31:58.936Z,100972.75
2022-08-30T21:37:02.727Z,100977.47
2022-08-30T21:42:06.139Z,100974.56
2022-08-30T21:47:08.648Z,100973.09
2022-08-30T21:52:12.523Z,100985.94
2022-08-30T21:57:16.867Z,100994.38
2022-08-30T22:02:19.545Z,100991.16
2022-08-30T22:07:23.451Z,100996.19
2022-08-30T22:12:26.021Z,101005.13
2022-08-30T22:17:28.596Z,100994.81
2022-08-30T22:22:32.450Z,100985.75
2022-08-30T22:27:35.083Z,100988.78
2022-08-30T22:32:38.551Z,100989.09
2022-08-30T22:37:42.579Z,100988.09
2022-08-30T22:42:50.423Z,100993.16
2022-08-30T22:47:53.025Z,100994.88
2022-08-30T22:52:57.128Z,101001.72
2022-08-30T22:57:59.847Z,101009.97
2022-08-30T23:03:02.563Z,101013.44
2022-08-30T23:08:07.885Z,101013.00
2022-08-30T23:13:10.573Z,101017.91
2022-08-30T23:18:13.255Z,101016.81
2022-08-30T23:23:34.773Z,101021.88
2022-08-30T23:28:54.604Z,101005.91
2022-08-30T23:34:15.758Z,101014.66
2022-08-30T23:39:37.248Z,101016.25
2022-08-30T23:44:57.273Z,101010.22
2022-08-30T23:50:17.546Z,101015.16
2022-08-30T23:55:38.981Z,101014.84
